sensor_id;sensor_type;location;lat;lon;timestamp;temperature;humidity
21193;DHT22;10754;51.106;7.164;2023-04-28T00:00:09;15.50;99.90
21193;DHT22;10754;51.106;7.164;2023-04-28T00:02:36;15.50;99.90
21193;DHT22;10754;51.106;7.164;2023-04-28T00:05:01;15.40;99.90
21193;DHT22;10754;51.106;7.164;2023-04-28T00:07:27;15.40;99.90
21193;DHT22;10754;51.106;7.164;2023-04-28T00:09:53;15.40;99.90
21193;DHT22;10754;51.106;7.164;2023-04-28T00:12:18;15.50;99.90
21193;DHT22;10754;51.106;7.164;2023-04-28T00:14:44;15.70;99.90
21193;DHT22;10754;51.106;7.164;2023-04-28T00:17:09;15.60;99.90
21193;DHT22;10754;51.106;7.164;2023-04-28T00:19:35;15.70;99.90
21193;DHT22;10754;51.106;7.164;2023-04-28T00:22:01;15.80;99.90
21193;DHT22;10754;51.106;7.164;2023-04-28T00:24:26;15.70;99.90
21193;DHT22;10754;51.106;7.164;2023-04-28T00:26:52;15.90;99.90
21193;DHT22;10754;51.106;7.164;2023-04-28T00:29:17;15.70;99.90
21193;DHT22;10754;51.106;7.164;2023-04-28T00:31:43;15.60;99.90
21193;DHT22;10754;51.106;7.164;2023-04-28T00:34:09;15.50;99.90
21193;DHT22;10754;51.106;7.164;2023-04-28T00:36:38;15.40;99.90
21193;DHT22;10754;51.106;7.164;2023-04-28T00:39:04;15.30;99.90
21193;DHT22;10754;51.106;7.164;2023-04-28T00:41:29;15.50;99.90
21193;DHT22;10754;51.106;7.164;2023-04-28T00:43:56;15.70;99.90
21193;DHT22;10754;51.106;7.164;2023-04-28T00:46:29;15.60;99.90
21193;DHT22;10754;51.106;7.164;2023-04-28T00:48:55;15.60;99.90
21193;DHT22;10754;51.106;7.164;2023-04-28T00:51:20;15.50;99.90
21193;DHT22;10754;51.106;7.164;2023-04-28T00:53:46;15.30;99.90
21193;DHT22;10754;51.106;7.164;2023-04-28T00:56:12;15.50;99.90
21193;DHT22;10754;51.106;7.164;2023-04-28T00:58:38;15.30;99.90
21193;DHT22;10754;51.106;7.164;2023-04-28T01:01:04;15.30;99.90
21193;DHT22;10754;51.106;7.164;2023-04-28T01:03:33;15.30;99.90
21193;DHT22;10754;51.106;7.164;2023-04-28T01:05:59;15.20;99.90
21193;DHT22;10754;51.106;7.164;2023-04-28T01:08:30;15.20;99.90
21193;DHT22;10754;51.106;7.164;2023-04-28T01:10:56;15.20;99.90
21193;DHT22;10754;51.106;7.164;2023-04-28T01:13:21;15.20;99.90
21193;DHT22;10754;51.106;7.164;2023-04-28T01:15:47;15.10;99.90
21193;DHT22;10754;51.106;7.164;2023-04-28T01:18:13;15.10;99.90
21193;DHT22;10754;51.106;7.164;2023-04-28T01:20:40;15.20;99.90
21193;DHT22;10754;51.106;7.164;2023-04-28T01:23:14;15.30;99.90
21193;DHT22;10754;51.106;7.164;2023-04-28T01:25:41;15.20;99.90
21193;DHT22;10754;51.106;7.164;2023-04-28T01:28:07;15.10;99.90
21193;DHT22;10754;51.106;7.164;2023-04-28T01:30:33;15.10;99.90
21193;DHT22;10754;51.106;7.164;2023-04-28T01:33:00;15.00;99.90
21193;DHT22;10754;51.106;7.164;2023-04-28T01:35:25;15.00;99.90
21193;DHT22;10754;51.106;7.164;2023-04-28T01:37:51;15.00;99.90
21193;DHT22;10754;51.106;7.164;2023-04-28T01:40:16;15.00;99.90
21193;DHT22;10754;51.106;7.164;2023-04-28T01:42:42;15.00;99.90
21193;DHT22;10754;51.106;7.164;2023-04-28T01:45:08;15.00;99.90
21193;DHT22;10754;51.106;7.164;2023-04-28T01:47:34;15.00;99.90
21193;DHT22;10754;51.106;7.164;2023-04-28T01:49:59;15.00;1.40
21193;DHT22;10754;51.106;7.164;2023-04-28T01:52:26;15.10;1.00
21193;DHT22;10754;51.106;7.164;2023-04-28T01:54:52;15.10;1.00
21193;DHT22;10754;51.106;7.164;2023-04-28T01:57:18;15.10;1.00
21193;DHT22;10754;51.106;7.164;2023-04-28T01:59:43;15.10;1.00
21193;DHT22;10754;51.106;7.164;2023-04-28T02:02:09;15.00;1.00
21193;DHT22;10754;51.106;7.164;2023-04-28T02:04:36;15.00;1.00
21193;DHT22;10754;51.106;7.164;2023-04-28T02:07:02;15.00;1.00
21193;DHT22;10754;51.106;7.164;2023-04-28T02:09:27;15.00;1.00
21193;DHT22;10754;51.106;7.164;2023-04-28T02:11:53;15.00;1.00
21193;DHT22;10754;51.106;7.164;2023-04-28T02:14:18;15.00;1.00
21193;DHT22;10754;51.106;7.164;2023-04-28T02:16:44;15.10;1.00
21193;DHT22;10754;51.106;7.164;2023-04-28T02:19:09;15.10;1.00
21193;DHT22;10754;51.106;7.164;2023-04-28T02:21:35;15.10;1.00
21193;DHT22;10754;51.106;7.164;2023-04-28T02:24:00;15.10;1.00
21193;DHT22;10754;51.106;7.164;2023-04-28T02:26:26;15.10;1.00
21193;DHT22;10754;51.106;7.164;2023-04-28T02:28:52;15.00;1.00
21193;DHT22;10754;51.106;7.164;2023-04-28T02:31:17;15.10;1.00
21193;DHT22;10754;51.106;7.164;2023-04-28T02:33:43;15.10;1.00
21193;DHT22;10754;51.106;7.164;2023-04-28T02:36:08;15.00;1.00
21193;DHT22;10754;51.106;7.164;2023-04-28T02:38:34;15.10;1.00
21193;DHT22;10754;51.106;7.164;2023-04-28T02:41:02;15.00;1.00
21193;DHT22;10754;51.106;7.164;2023-04-28T02:43:29;15.10;1.00
21193;DHT22;10754;51.106;7.164;2023-04-28T02:45:56;15.00;1.00
21193;DHT22;10754;51.106;7.164;2023-04-28T02:48:22;15.10;1.00
21193;DHT22;10754;51.106;7.164;2023-04-28T02:50:48;15.10;1.00
21193;DHT22;10754;51.106;7.164;2023-04-28T02:53:13;15.00;1.00
21193;DHT22;10754;51.106;7.164;2023-04-28T02:55:39;14.90;1.00
21193;DHT22;10754;51.106;7.164;2023-04-28T02:58:04;14.90;1.00
21193;DHT22;10754;51.106;7.164;2023-04-28T03:00:30;14.80;1.00
21193;DHT22;10754;51.106;7.164;2023-04-28T03:02:55;14.80;1.00
21193;DHT22;10754;51.106;7.164;2023-04-28T03:05:21;14.80;1.00
21193;DHT22;10754;51.106;7.164;2023-04-28T03:07:46;14.80;1.00
21193;DHT22;10754;51.106;7.164;2023-04-28T03:10:12;14.70;1.00
21193;DHT22;10754;51.106;7.164;2023-04-28T03:12:37;14.70;1.00
21193;DHT22;10754;51.106;7.164;2023-04-28T03:15:03;14.70;1.00
21193;DHT22;10754;51.106;7.164;2023-04-28T03:17:29;14.70;1.00
21193;DHT22;10754;51.106;7.164;2023-04-28T03:19:54;14.70;1.00
21193;DHT22;10754;51.106;7.164;2023-04-28T03:22:20;14.70;1.00
21193;DHT22;10754;51.106;7.164;2023-04-28T03:24:45;14.60;1.00
21193;DHT22;10754;51.106;7.164;2023-04-28T03:27:11;14.60;1.00
21193;DHT22;10754;51.106;7.164;2023-04-28T03:29:37;14.60;1.00
21193;DHT22;10754;51.106;7.164;2023-04-28T03:32:02;14.60;1.00
21193;DHT22;10754;51.106;7.164;2023-04-28T03:34:27;14.60;1.00
21193;DHT22;10754;51.106;7.164;2023-04-28T03:36:53;14.70;1.00
21193;DHT22;10754;51.106;7.164;2023-04-28T03:39:19;14.60;1.00
21193;DHT22;10754;51.106;7.164;2023-04-28T03:41:44;14.60;1.00
21193;DHT22;10754;51.106;7.164;2023-04-28T03:44:09;14.50;1.00
21193;DHT22;10754;51.106;7.164;2023-04-28T03:46:35;14.60;1.00
21193;DHT22;10754;51.106;7.164;2023-04-28T03:49:00;14.60;1.00
21193;DHT22;10754;51.106;7.164;2023-04-28T03:51:29;14.60;1.00
21193;DHT22;10754;51.106;7.164;2023-04-28T03:53:55;14.50;1.00
21193;DHT22;10754;51.106;7.164;2023-04-28T03:56:20;14.60;1.00
21193;DHT22;10754;51.106;7.164;2023-04-28T03:58:46;14.40;1.00
21193;DHT22;10754;51.106;7.164;2023-04-28T04:01:11;14.50;1.00
21193;DHT22;10754;51.106;7.164;2023-04-28T04:03:37;14.40;1.00
21193;DHT22;10754;51.106;7.164;2023-04-28T04:06:03;14.40;1.00
21193;DHT22;10754;51.106;7.164;2023-04-28T04:08:28;14.30;1.00
21193;DHT22;10754;51.106;7.164;2023-04-28T04:10:54;14.40;1.00
21193;DHT22;10754;51.106;7.164;2023-04-28T04:13:20;14.40;1.00
21193;DHT22;10754;51.106;7.164;2023-04-28T04:15:46;14.50;1.00
21193;DHT22;10754;51.106;7.164;2023-04-28T04:18:12;14.60;1.00
21193;DHT22;10754;51.106;7.164;2023-04-28T04:20:39;14.60;1.00
21193;DHT22;10754;51.106;7.164;2023-04-28T04:23:04;14.60;1.00
21193;DHT22;10754;51.106;7.164;2023-04-28T04:25:30;14.50;1.00
21193;DHT22;10754;51.106;7.164;2023-04-28T04:27:57;14.50;1.00
21193;DHT22;10754;51.106;7.164;2023-04-28T04:30:22;14.40;1.00
21193;DHT22;10754;51.106;7.164;2023-04-28T04:32:48;14.40;1.00
21193;DHT22;10754;51.106;7.164;2023-04-28T04:35:13;14.30;1.00
21193;DHT22;10754;51.106;7.164;2023-04-28T04:37:39;14.40;1.00
21193;DHT22;10754;51.106;7.164;2023-04-28T04:40:05;14.50;1.00
21193;DHT22;10754;51.106;7.164;2023-04-28T04:42:31;14.50;1.00
21193;DHT22;10754;51.106;7.164;2023-04-28T04:44:56;14.40;1.00
21193;DHT22;10754;51.106;7.164;2023-04-28T04:47:22;14.30;1.00
21193;DHT22;10754;51.106;7.164;2023-04-28T04:49:48;14.30;1.00
21193;DHT22;10754;51.106;7.164;2023-04-28T04:52:17;14.30;1.00
21193;DHT22;10754;51.106;7.164;2023-04-28T04:54:43;14.40;1.00
21193;DHT22;10754;51.106;7.164;2023-04-28T04:57:09;14.30;1.00
21193;DHT22;10754;51.106;7.164;2023-04-28T04:59:35;14.30;1.00
21193;DHT22;10754;51.106;7.164;2023-04-28T05:02:01;14.30;1.00
21193;DHT22;10754;51.106;7.164;2023-04-28T05:04:26;14.40;1.00
21193;DHT22;10754;51.106;7.164;2023-04-28T05:06:52;14.50;1.00
21193;DHT22;10754;51.106;7.164;2023-04-28T05:09:17;14.40;1.00
21193;DHT22;10754;51.106;7.164;2023-04-28T05:11:44;14.40;1.00
21193;DHT22;10754;51.106;7.164;2023-04-28T05:14:09;14.40;1.00
21193;DHT22;10754;51.106;7.164;2023-04-28T05:16:36;14.50;1.00
21193;DHT22;10754;51.106;7.164;2023-04-28T05:19:02;14.40;1.00
21193;DHT22;10754;51.106;7.164;2023-04-28T05:21:28;14.30;1.00
21193;DHT22;10754;51.106;7.164;2023-04-28T05:23:53;14.30;1.00
21193;DHT22;10754;51.106;7.164;2023-04-28T05:26:19;14.30;1.00
21193;DHT22;10754;51.106;7.164;2023-04-28T05:28:45;14.40;1.00
21193;DHT22;10754;51.106;7.164;2023-04-28T05:31:10;14.60;1.00
21193;DHT22;10754;51.106;7.164;2023-04-28T05:33:36;14.60;1.00
21193;DHT22;10754;51.106;7.164;2023-04-28T05:36:01;14.50;1.00
21193;DHT22;10754;51.106;7.164;2023-04-28T05:38:27;14.50;1.00
21193;DHT22;10754;51.106;7.164;2023-04-28T05:40:53;14.50;1.00
21193;DHT22;10754;51.106;7.164;2023-04-28T05:43:18;14.40;1.00
21193;DHT22;10754;51.106;7.164;2023-04-28T05:45:44;14.30;1.00
21193;DHT22;10754;51.106;7.164;2023-04-28T05:48:10;14.30;1.00
21193;DHT22;10754;51.106;7.164;2023-04-28T05:50:35;14.30;1.00
21193;DHT22;10754;51.106;7.164;2023-04-28T05:53:01;14.30;1.00
21193;DHT22;10754;51.106;7.164;2023-04-28T05:55:26;14.30;1.00
21193;DHT22;10754;51.106;7.164;2023-04-28T05:57:53;14.30;1.00
21193;DHT22;10754;51.106;7.164;2023-04-28T06:00:18;14.40;1.00
21193;DHT22;10754;51.106;7.164;2023-04-28T06:02:44;14.40;1.00
21193;DHT22;10754;51.106;7.164;2023-04-28T06:05:10;14.50;1.00
21193;DHT22;10754;51.106;7.164;2023-04-28T06:07:35;14.40;1.00
21193;DHT22;10754;51.106;7.164;2023-04-28T06:10:01;14.50;1.00
21193;DHT22;10754;51.106;7.164;2023-04-28T06:12:26;14.50;1.00
21193;DHT22;10754;51.106;7.164;2023-04-28T06:14:52;14.50;1.00
21193;DHT22;10754;51.106;7.164;2023-04-28T06:17:19;14.60;1.00
21193;DHT22;10754;51.106;7.164;2023-04-28T06:19:45;14.50;1.00
21193;DHT22;10754;51.106;7.164;2023-04-28T06:22:11;14.50;1.00
21193;DHT22;10754;51.106;7.164;2023-04-28T06:24:36;14.60;1.00
21193;DHT22;10754;51.106;7.164;2023-04-28T06:27:02;14.60;1.00
21193;DHT22;10754;51.106;7.164;2023-04-28T06:29:27;14.50;1.00
21193;DHT22;10754;51.106;7.164;2023-04-28T06:31:53;14.80;1.00
21193;DHT22;10754;51.106;7.164;2023-04-28T06:34:24;14.60;1.00
21193;DHT22;10754;51.106;7.164;2023-04-28T06:36:55;14.50;1.00
21193;DHT22;10754;51.106;7.164;2023-04-28T06:39:22;14.60;1.00
21193;DHT22;10754;51.106;7.164;2023-04-28T06:41:47;14.70;1.00
21193;DHT22;10754;51.106;7.164;2023-04-28T06:44:13;14.80;1.00
21193;DHT22;10754;51.106;7.164;2023-04-28T06:46:38;14.70;1.00
21193;DHT22;10754;51.106;7.164;2023-04-28T06:49:04;14.70;1.00
21193;DHT22;10754;51.106;7.164;2023-04-28T06:51:32;14.70;1.00
21193;DHT22;10754;51.106;7.164;2023-04-28T06:53:58;14.70;1.00
21193;DHT22;10754;51.106;7.164;2023-04-28T06:56:24;14.80;1.00
21193;DHT22;10754;51.106;7.164;2023-04-28T06:58:50;14.90;1.00
21193;DHT22;10754;51.106;7.164;2023-04-28T07:01:16;15.00;1.00
21193;DHT22;10754;51.106;7.164;2023-04-28T07:03:42;14.90;1.00
21193;DHT22;10754;51.106;7.164;2023-04-28T07:06:07;15.00;1.00
21193;DHT22;10754;51.106;7.164;2023-04-28T07:08:34;15.00;1.00
21193;DHT22;10754;51.106;7.164;2023-04-28T07:11:00;14.90;1.00
21193;DHT22;10754;51.106;7.164;2023-04-28T07:13:29;15.10;1.00
21193;DHT22;10754;51.106;7.164;2023-04-28T07:15:55;15.20;1.00
21193;DHT22;10754;51.106;7.164;2023-04-28T07:18:21;15.20;1.00
21193;DHT22;10754;51.106;7.164;2023-04-28T07:20:46;15.20;1.00
21193;DHT22;10754;51.106;7.164;2023-04-28T07:23:12;15.20;1.00
21193;DHT22;10754;51.106;7.164;2023-04-28T07:25:38;15.40;1.00
21193;DHT22;10754;51.106;7.164;2023-04-28T07:28:05;15.50;1.00
21193;DHT22;10754;51.106;7.164;2023-04-28T07:30:30;15.50;1.00
21193;DHT22;10754;51.106;7.164;2023-04-28T07:32:56;15.60;1.00
21193;DHT22;10754;51.106;7.164;2023-04-28T07:35:22;15.60;1.00
21193;DHT22;10754;51.106;7.164;2023-04-28T07:37:48;15.50;1.00
21193;DHT22;10754;51.106;7.164;2023-04-28T07:40:13;15.40;1.00
21193;DHT22;10754;51.106;7.164;2023-04-28T07:42:39;15.40;1.00
21193;DHT22;10754;51.106;7.164;2023-04-28T07:45:05;15.40;1.00
21193;DHT22;10754;51.106;7.164;2023-04-28T07:47:30;15.50;1.00
21193;DHT22;10754;51.106;7.164;2023-04-28T07:49:56;15.70;1.00
21193;DHT22;10754;51.106;7.164;2023-04-28T07:52:22;15.60;1.00
21193;DHT22;10754;51.106;7.164;2023-04-28T07:54:48;15.60;1.00
21193;DHT22;10754;51.106;7.164;2023-04-28T07:57:13;15.70;1.00
21193;DHT22;10754;51.106;7.164;2023-04-28T07:59:39;16.00;1.00
21193;DHT22;10754;51.106;7.164;2023-04-28T08:02:05;15.80;1.00
21193;DHT22;10754;51.106;7.164;2023-04-28T08:04:31;15.80;1.00
21193;DHT22;10754;51.106;7.164;2023-04-28T08:06:58;15.80;1.00
21193;DHT22;10754;51.106;7.164;2023-04-28T08:09:24;15.70;1.00
21193;DHT22;10754;51.106;7.164;2023-04-28T08:11:50;15.60;1.00
21193;DHT22;10754;51.106;7.164;2023-04-28T08:14:15;15.40;1.00
21193;DHT22;10754;51.106;7.164;2023-04-28T08:16:41;15.50;1.00
21193;DHT22;10754;51.106;7.164;2023-04-28T08:19:08;15.50;1.00
21193;DHT22;10754;51.106;7.164;2023-04-28T08:21:33;15.60;1.00
21193;DHT22;10754;51.106;7.164;2023-04-28T08:23:59;15.70;1.00
21193;DHT22;10754;51.106;7.164;2023-04-28T08:26:25;15.60;1.00
21193;DHT22;10754;51.106;7.164;2023-04-28T08:28:50;15.40;1.00
21193;DHT22;10754;51.106;7.164;2023-04-28T08:31:16;15.60;1.00
21193;DHT22;10754;51.106;7.164;2023-04-28T08:33:42;15.90;1.00
21193;DHT22;10754;51.106;7.164;2023-04-28T08:36:09;15.90;1.00
21193;DHT22;10754;51.106;7.164;2023-04-28T08:38:36;15.90;1.00
21193;DHT22;10754;51.106;7.164;2023-04-28T08:41:03;16.00;1.00
21193;DHT22;10754;51.106;7.164;2023-04-28T08:43:34;16.00;1.00
21193;DHT22;10754;51.106;7.164;2023-04-28T08:46:04;15.80;1.00
21193;DHT22;10754;51.106;7.164;2023-04-28T08:48:38;15.80;1.00
21193;DHT22;10754;51.106;7.164;2023-04-28T08:51:06;16.00;1.00
21193;DHT22;10754;51.106;7.164;2023-04-28T08:53:36;16.20;1.00
21193;DHT22;10754;51.106;7.164;2023-04-28T08:56:04;16.40;1.00
21193;DHT22;10754;51.106;7.164;2023-04-28T08:58:30;16.50;1.00
21193;DHT22;10754;51.106;7.164;2023-04-28T09:00:56;16.50;1.00
21193;DHT22;10754;51.106;7.164;2023-04-28T09:03:21;16.50;1.00
21193;DHT22;10754;51.106;7.164;2023-04-28T09:05:47;16.50;1.00
21193;DHT22;10754;51.106;7.164;2023-04-28T09:08:13;16.80;1.00
21193;DHT22;10754;51.106;7.164;2023-04-28T09:10:39;16.80;1.00
21193;DHT22;10754;51.106;7.164;2023-04-28T09:13:05;17.00;1.00
21193;DHT22;10754;51.106;7.164;2023-04-28T09:15:36;17.00;1.00
21193;DHT22;10754;51.106;7.164;2023-04-28T09:18:03;17.10;1.00
21193;DHT22;10754;51.106;7.164;2023-04-28T09:20:30;16.80;1.00
21193;DHT22;10754;51.106;7.164;2023-04-28T09:23:20;17.00;1.00
21193;DHT22;10754;51.106;7.164;2023-04-28T09:26:03;16.80;1.00
21193;DHT22;10754;51.106;7.164;2023-04-28T09:28:29;16.60;1.00
21193;DHT22;10754;51.106;7.164;2023-04-28T09:30:55;16.60;1.00
21193;DHT22;10754;51.106;7.164;2023-04-28T09:33:21;16.70;1.00
21193;DHT22;10754;51.106;7.164;2023-04-28T09:35:47;16.70;1.00
21193;DHT22;10754;51.106;7.164;2023-04-28T09:38:17;16.80;1.00
21193;DHT22;10754;51.106;7.164;2023-04-28T09:41:00;16.80;1.00
21193;DHT22;10754;51.106;7.164;2023-04-28T09:43:30;16.90;1.00
21193;DHT22;10754;51.106;7.164;2023-04-28T09:46:01;16.90;1.00
21193;DHT22;10754;51.106;7.164;2023-04-28T09:48:35;16.80;1.00
21193;DHT22;10754;51.106;7.164;2023-04-28T09:51:05;16.80;1.00
21193;DHT22;10754;51.106;7.164;2023-04-28T09:53:31;16.80;1.00
21193;DHT22;10754;51.106;7.164;2023-04-28T09:55:59;17.00;1.00
21193;DHT22;10754;51.106;7.164;2023-04-28T09:58:28;17.00;1.00
21193;DHT22;10754;51.106;7.164;2023-04-28T10:00:55;16.90;1.00
21193;DHT22;10754;51.106;7.164;2023-04-28T10:03:23;16.80;1.00
21193;DHT22;10754;51.106;7.164;2023-04-28T10:05:49;16.90;1.00
21193;DHT22;10754;51.106;7.164;2023-04-28T10:08:18;16.80;1.00
21193;DHT22;10754;51.106;7.164;2023-04-28T10:10:45;16.80;1.00
21193;DHT22;10754;51.106;7.164;2023-04-28T10:13:14;16.70;1.00
21193;DHT22;10754;51.106;7.164;2023-04-28T10:15:41;16.60;1.00
21193;DHT22;10754;51.106;7.164;2023-04-28T10:18:07;16.80;1.00
21193;DHT22;10754;51.106;7.164;2023-04-28T10:20:33;16.70;1.00
21193;DHT22;10754;51.106;7.164;2023-04-28T10:23:29;16.70;1.00
21193;DHT22;10754;51.106;7.164;2023-04-28T10:25:57;16.60;1.00
21193;DHT22;10754;51.106;7.164;2023-04-28T10:28:24;16.60;1.00
21193;DHT22;10754;51.106;7.164;2023-04-28T10:31:19;16.70;1.00
21193;DHT22;10754;51.106;7.164;2023-04-28T10:33:48;16.80;1.00
21193;DHT22;10754;51.106;7.164;2023-04-28T10:36:46;16.80;1.00
21193;DHT22;10754;51.106;7.164;2023-04-28T10:39:12;16.80;1.00
21193;DHT22;10754;51.106;7.164;2023-04-28T10:41:38;16.70;1.00
21193;DHT22;10754;51.106;7.164;2023-04-28T10:47:07;16.70;1.00
21193;DHT22;10754;51.106;7.164;2023-04-28T10:55:33;16.80;1.00
21193;DHT22;10754;51.106;7.164;2023-04-28T11:00:43;16.80;1.00
21193;DHT22;10754;51.106;7.164;2023-04-28T11:03:41;16.80;1.00
21193;DHT22;10754;51.106;7.164;2023-04-28T11:06:31;16.80;1.00
21193;DHT22;10754;51.106;7.164;2023-04-28T11:16:51;16.80;1.00
21193;DHT22;10754;51.106;7.164;2023-04-28T11:19:21;16.80;1.00
21193;DHT22;10754;51.106;7.164;2023-04-28T11:21:49;16.90;1.00
21193;DHT22;10754;51.106;7.164;2023-04-28T11:24:15;17.00;1.00
21193;DHT22;10754;51.106;7.164;2023-04-28T11:26:41;17.00;1.00
21193;DHT22;10754;51.106;7.164;2023-04-28T11:29:08;17.10;1.00
21193;DHT22;10754;51.106;7.164;2023-04-28T11:31:34;17.30;1.00
21193;DHT22;10754;51.106;7.164;2023-04-28T11:36:33;17.50;1.00
21193;DHT22;10754;51.106;7.164;2023-04-28T11:39:00;17.50;1.00
21193;DHT22;10754;51.106;7.164;2023-04-28T11:41:26;17.50;1.00
21193;DHT22;10754;51.106;7.164;2023-04-28T11:43:52;17.60;1.00
21193;DHT22;10754;51.106;7.164;2023-04-28T11:46:18;17.70;1.00
21193;DHT22;10754;51.106;7.164;2023-04-28T11:48:44;17.80;1.00
21193;DHT22;10754;51.106;7.164;2023-04-28T11:51:35;17.90;1.00
21193;DHT22;10754;51.106;7.164;2023-04-28T11:54:03;18.00;1.00
21193;DHT22;10754;51.106;7.164;2023-04-28T11:56:29;18.00;1.00
21193;DHT22;10754;51.106;7.164;2023-04-28T11:59:04;18.10;1.00
21193;DHT22;10754;51.106;7.164;2023-04-28T12:01:30;18.10;1.00
21193;DHT22;10754;51.106;7.164;2023-04-28T12:03:56;18.10;1.00
21193;DHT22;10754;51.106;7.164;2023-04-28T12:06:22;18.10;1.00
21193;DHT22;10754;51.106;7.164;2023-04-28T12:08:48;18.20;1.00
21193;DHT22;10754;51.106;7.164;2023-04-28T12:11:14;18.30;1.00
21193;DHT22;10754;51.106;7.164;2023-04-28T12:13:40;18.50;1.00
21193;DHT22;10754;51.106;7.164;2023-04-28T12:16:06;18.60;1.00
21193;DHT22;10754;51.106;7.164;2023-04-28T12:18:33;18.60;1.00
21193;DHT22;10754;51.106;7.164;2023-04-28T12:21:00;18.90;1.00
21193;DHT22;10754;51.106;7.164;2023-04-28T12:23:34;19.20;1.00
21193;DHT22;10754;51.106;7.164;2023-04-28T12:26:01;19.70;1.00
21193;DHT22;10754;51.106;7.164;2023-04-28T12:28:39;19.60;1.00
21193;DHT22;10754;51.106;7.164;2023-04-28T12:31:07;19.50;1.00
21193;DHT22;10754;51.106;7.164;2023-04-28T12:33:33;19.50;1.00
21193;DHT22;10754;51.106;7.164;2023-04-28T12:36:02;19.50;1.00
21193;DHT22;10754;51.106;7.164;2023-04-28T12:38:29;19.40;1.00
21193;DHT22;10754;51.106;7.164;2023-04-28T12:40:55;19.40;1.00
21193;DHT22;10754;51.106;7.164;2023-04-28T12:43:21;19.30;1.00
21193;DHT22;10754;51.106;7.164;2023-04-28T12:45:51;19.40;1.00
21193;DHT22;10754;51.106;7.164;2023-04-28T12:48:18;19.40;1.00
21193;DHT22;10754;51.106;7.164;2023-04-28T12:50:43;19.60;1.00
21193;DHT22;10754;51.106;7.164;2023-04-28T12:53:09;19.60;1.00
21193;DHT22;10754;51.106;7.164;2023-04-28T12:55:35;19.90;1.00
21193;DHT22;10754;51.106;7.164;2023-04-28T12:58:01;20.20;1.00
21193;DHT22;10754;51.106;7.164;2023-04-28T13:00:26;20.40;1.00
21193;DHT22;10754;51.106;7.164;2023-04-28T13:02:52;20.70;1.00
21193;DHT22;10754;51.106;7.164;2023-04-28T13:05:17;20.60;1.00
21193;DHT22;10754;51.106;7.164;2023-04-28T13:07:44;20.50;1.00
21193;DHT22;10754;51.106;7.164;2023-04-28T13:10:09;20.50;1.00
21193;DHT22;10754;51.106;7.164;2023-04-28T13:12:35;20.80;1.00
21193;DHT22;10754;51.106;7.164;2023-04-28T13:15:01;21.00;1.00
21193;DHT22;10754;51.106;7.164;2023-04-28T13:17:27;21.50;1.00
21193;DHT22;10754;51.106;7.164;2023-04-28T13:19:52;21.40;1.00
21193;DHT22;10754;51.106;7.164;2023-04-28T13:22:18;21.50;1.00
21193;DHT22;10754;51.106;7.164;2023-04-28T13:24:46;21.40;1.00
21193;DHT22;10754;51.106;7.164;2023-04-28T13:27:11;21.20;1.00
21193;DHT22;10754;51.106;7.164;2023-04-28T13:29:37;20.90;1.00
21193;DHT22;10754;51.106;7.164;2023-04-28T13:32:02;20.60;1.00
21193;DHT22;10754;51.106;7.164;2023-04-28T13:34:29;20.50;1.00
21193;DHT22;10754;51.106;7.164;2023-04-28T13:36:55;20.70;1.00
21193;DHT22;10754;51.106;7.164;2023-04-28T13:39:21;21.30;1.00
21193;DHT22;10754;51.106;7.164;2023-04-28T13:41:47;21.80;1.00
21193;DHT22;10754;51.106;7.164;2023-04-28T13:44:14;22.20;1.00
21193;DHT22;10754;51.106;7.164;2023-04-28T13:46:40;22.70;1.00
21193;DHT22;10754;51.106;7.164;2023-04-28T13:49:06;23.00;1.00
21193;DHT22;10754;51.106;7.164;2023-04-28T13:51:31;22.70;1.00
21193;DHT22;10754;51.106;7.164;2023-04-28T13:53:58;23.30;1.00
21193;DHT22;10754;51.106;7.164;2023-04-28T13:56:26;23.70;1.00
21193;DHT22;10754;51.106;7.164;2023-04-28T13:58:52;23.50;1.00
21193;DHT22;10754;51.106;7.164;2023-04-28T14:01:17;23.30;1.00
21193;DHT22;10754;51.106;7.164;2023-04-28T14:03:43;23.40;1.00
21193;DHT22;10754;51.106;7.164;2023-04-28T14:06:08;23.10;1.00
21193;DHT22;10754;51.106;7.164;2023-04-28T14:08:34;23.10;1.00
21193;DHT22;10754;51.106;7.164;2023-04-28T14:11:00;22.90;1.00
21193;DHT22;10754;51.106;7.164;2023-04-28T14:13:26;22.80;1.00
21193;DHT22;10754;51.106;7.164;2023-04-28T14:15:51;22.80;1.00
21193;DHT22;10754;51.106;7.164;2023-04-28T14:18:18;22.60;1.00
21193;DHT22;10754;51.106;7.164;2023-04-28T14:20:44;22.60;1.00
21193;DHT22;10754;51.106;7.164;2023-04-28T14:23:09;22.70;1.00
21193;DHT22;10754;51.106;7.164;2023-04-28T14:25:35;22.60;1.00
21193;DHT22;10754;51.106;7.164;2023-04-28T14:28:02;22.50;1.00
21193;DHT22;10754;51.106;7.164;2023-04-28T14:30:27;22.50;1.00
21193;DHT22;10754;51.106;7.164;2023-04-28T14:32:52;22.90;1.00
21193;DHT22;10754;51.106;7.164;2023-04-28T14:35:19;22.60;1.00
21193;DHT22;10754;51.106;7.164;2023-04-28T14:37:45;22.70;1.00
21193;DHT22;10754;51.106;7.164;2023-04-28T14:40:14;22.40;1.00
21193;DHT22;10754;51.106;7.164;2023-04-28T14:42:40;22.20;1.00
21193;DHT22;10754;51.106;7.164;2023-04-28T14:45:07;22.20;1.00
21193;DHT22;10754;51.106;7.164;2023-04-28T14:47:33;22.10;1.00
21193;DHT22;10754;51.106;7.164;2023-04-28T14:49:59;22.10;1.00
21193;DHT22;10754;51.106;7.164;2023-04-28T14:52:25;22.00;1.00
21193;DHT22;10754;51.106;7.164;2023-04-28T14:54:56;22.10;1.00
21193;DHT22;10754;51.106;7.164;2023-04-28T14:57:23;22.10;1.00
21193;DHT22;10754;51.106;7.164;2023-04-28T14:59:48;22.00;1.00
21193;DHT22;10754;51.106;7.164;2023-04-28T15:02:16;21.80;1.00
21193;DHT22;10754;51.106;7.164;2023-04-28T15:04:43;22.00;1.00
21193;DHT22;10754;51.106;7.164;2023-04-28T15:07:09;21.90;1.00
21193;DHT22;10754;51.106;7.164;2023-04-28T15:09:34;22.00;1.00
21193;DHT22;10754;51.106;7.164;2023-04-28T15:12:01;22.00;1.00
21193;DHT22;10754;51.106;7.164;2023-04-28T15:14:27;21.90;1.00
21193;DHT22;10754;51.106;7.164;2023-04-28T15:16:53;21.90;1.00
21193;DHT22;10754;51.106;7.164;2023-04-28T15:19:19;21.80;1.00
21193;DHT22;10754;51.106;7.164;2023-04-28T15:21:45;21.60;1.00
21193;DHT22;10754;51.106;7.164;2023-04-28T15:24:10;21.80;1.00
21193;DHT22;10754;51.106;7.164;2023-04-28T15:26:36;21.80;1.00
21193;DHT22;10754;51.106;7.164;2023-04-28T15:29:01;22.00;1.00
21193;DHT22;10754;51.106;7.164;2023-04-28T15:31:27;21.90;1.00
21193;DHT22;10754;51.106;7.164;2023-04-28T15:33:53;21.90;1.00
21193;DHT22;10754;51.106;7.164;2023-04-28T15:36:19;21.80;1.00
21193;DHT22;10754;51.106;7.164;2023-04-28T15:38:49;21.60;1.00
21193;DHT22;10754;51.106;7.164;2023-04-28T15:41:16;21.40;1.00
21193;DHT22;10754;51.106;7.164;2023-04-28T15:43:42;21.40;1.00
21193;DHT22;10754;51.106;7.164;2023-04-28T15:46:08;21.50;1.00
21193;DHT22;10754;51.106;7.164;2023-04-28T15:48:35;21.40;1.00
21193;DHT22;10754;51.106;7.164;2023-04-28T15:51:03;21.20;1.00
21193;DHT22;10754;51.106;7.164;2023-04-28T15:53:28;21.10;1.00
21193;DHT22;10754;51.106;7.164;2023-04-28T15:55:54;21.20;1.00
21193;DHT22;10754;51.106;7.164;2023-04-28T15:58:19;21.30;1.00
21193;DHT22;10754;51.106;7.164;2023-04-28T16:00:45;21.20;1.00
21193;DHT22;10754;51.106;7.164;2023-04-28T16:03:11;21.00;1.00